GFA214 OKKK-OBBI
Flight info
| Callsign | GFA214 |
|---|---|
| Flight time | 0h 46m |
| Altitude | 27000 |
| Route | BOXIK4E BOXIK B416 IMDOX P975 LONOS L703 KOBOK KOBOK1 |
| Aircraft | A20N/M-SDE2E3FGHIRWXY/LB1 |
Departure
| Time | 2026-05-04 16:06 |
|---|---|
| Airport | Kuwait International Airport (OKKK) |
Arrival
| Time | 2026-05-04 16:53 |
|---|---|
| Airport | Bahrain International Airport (OBBI) |
| Time | Latitude | Longitude | Altitude | Speed | Heading |
|---|---|---|---|---|---|
| 2026-05-04 15:28 | 29.23744 | 47.97318 | 156 ft | 0 kts | 273° |
| 2026-05-04 15:56 | 29.23743 | 47.97328 | 156 ft | 2 kts | 271° |
| 2026-05-04 15:56 | 29.23743 | 47.97345 | 156 ft | 2 kts | 274° |
| 2026-05-04 15:57 | 29.23742 | 47.97362 | 155 ft | 2 kts | 272° |
| 2026-05-04 15:57 | 29.23741 | 47.97377 | 155 ft | 0 kts | 273° |
| 2026-05-04 15:57 | 29.23741 | 47.97390 | 155 ft | 2 kts | 252° |
| 2026-05-04 15:57 | 29.23748 | 47.97405 | 155 ft | 2 kts | 226° |
| 2026-05-04 15:58 | 29.23761 | 47.97415 | 155 ft | 2 kts | 200° |
| 2026-05-04 15:58 | 29.23775 | 47.97418 | 156 ft | 2 kts | 173° |
| 2026-05-04 15:58 | 29.23785 | 47.97416 | 157 ft | 0 kts | 157° |
| 2026-05-04 15:58 | 29.23791 | 47.97412 | 157 ft | 0 kts | 155° |
| 2026-05-04 16:00 | 29.23772 | 47.97421 | 156 ft | 5 kts | 157° |
| 2026-05-04 16:00 | 29.23716 | 47.97450 | 152 ft | 11 kts | 155° |
| 2026-05-04 16:01 | 29.23649 | 47.97419 | 150 ft | 12 kts | 248° |
| 2026-05-04 16:01 | 29.23613 | 47.97324 | 150 ft | 12 kts | 246° |
| 2026-05-04 16:01 | 29.23576 | 47.97232 | 151 ft | 13 kts | 245° |
| 2026-05-04 16:01 | 29.23531 | 47.97126 | 149 ft | 19 kts | 245° |
| 2026-05-04 16:02 | 29.23468 | 47.96971 | 147 ft | 21 kts | 246° |
| 2026-05-04 16:02 | 29.23449 | 47.96832 | 146 ft | 16 kts | 324° |
| 2026-05-04 16:02 | 29.23559 | 47.96667 | 144 ft | 13 kts | 307° |
| 2026-05-04 16:03 | 29.23640 | 47.96620 | 143 ft | 13 kts | 335° |
| 2026-05-04 16:03 | 29.23724 | 47.96574 | 143 ft | 13 kts | 335° |
| 2026-05-04 16:03 | 29.23814 | 47.96526 | 142 ft | 14 kts | 335° |
| 2026-05-04 16:03 | 29.23905 | 47.96478 | 142 ft | 14 kts | 335° |
| 2026-05-04 16:04 | 29.23998 | 47.96429 | 142 ft | 15 kts | 335° |
| 2026-05-04 16:04 | 29.24068 | 47.96267 | 141 ft | 14 kts | 246° |
| 2026-05-04 16:04 | 29.24019 | 47.96182 | 142 ft | 12 kts | 193° |
| 2026-05-04 16:05 | 29.23934 | 47.96213 | 141 ft | 13 kts | 155° |
| 2026-05-04 16:05 | 29.23829 | 47.96269 | 142 ft | 36 kts | 155° |
| 2026-05-04 16:05 | 29.22329 | 47.97062 | 256 ft | 177 kts | 156° |
| 2026-05-04 16:06 | 29.21158 | 47.97654 | 761 ft | 196 kts | 156° |
| 2026-05-04 16:06 | 29.17478 | 47.99655 | 2484 ft | 253 kts | 142° |
| 2026-05-04 16:07 | 29.16205 | 48.01716 | 3275 ft | 224 kts | 98° |
| 2026-05-04 16:07 | 29.16098 | 48.06958 | 4142 ft | 227 kts | 103° |
| 2026-05-04 16:08 | 29.15517 | 48.08656 | 4148 ft | 230 kts | 116° |
| 2026-05-04 16:08 | 29.13017 | 48.13530 | 4700 ft | 253 kts | 119° |
| 2026-05-04 16:09 | 29.11231 | 48.17067 | 5396 ft | 260 kts | 118° |
| 2026-05-04 16:09 | 29.09443 | 48.20671 | 6201 ft | 264 kts | 118° |
| 2026-05-04 16:10 | 29.07625 | 48.24359 | 7037 ft | 269 kts | 119° |
| 2026-05-04 16:11 | 29.04859 | 48.29964 | 7149 ft | 269 kts | 119° |
| 2026-05-04 16:11 | 29.03946 | 48.31813 | 7147 ft | 269 kts | 119° |
| 2026-05-04 16:12 | 29.01193 | 48.37390 | 7718 ft | 271 kts | 119° |
| 2026-05-04 16:12 | 28.98336 | 48.43172 | 9227 ft | 299 kts | 120° |
| 2026-05-04 16:13 | 28.96186 | 48.47508 | 10234 ft | 320 kts | 120° |
| 2026-05-04 16:13 | 28.93980 | 48.51952 | 11193 ft | 325 kts | 120° |
| 2026-05-04 16:14 | 28.91741 | 48.56463 | 12180 ft | 330 kts | 120° |
| 2026-05-04 16:14 | 28.89478 | 48.61015 | 13167 ft | 334 kts | 120° |
| 2026-05-04 16:15 | 28.85979 | 48.68002 | 14650 ft | 343 kts | 121° |
| 2026-05-04 16:16 | 28.83605 | 48.72787 | 15652 ft | 352 kts | 121° |
| 2026-05-04 16:16 | 28.79925 | 48.80174 | 17157 ft | 364 kts | 121° |
| 2026-05-04 16:17 | 28.77438 | 48.85238 | 18144 ft | 372 kts | 121° |
| 2026-05-04 16:18 | 28.73613 | 48.93045 | 19632 ft | 383 kts | 121° |
| 2026-05-04 16:18 | 28.72301 | 48.95717 | 20167 ft | 386 kts | 121° |
| 2026-05-04 16:19 | 28.68348 | 49.03757 | 21675 ft | 396 kts | 121° |
| 2026-05-04 16:19 | 28.65638 | 49.09263 | 22678 ft | 403 kts | 122° |
| 2026-05-04 16:20 | 28.61463 | 49.17736 | 24179 ft | 416 kts | 122° |
| 2026-05-04 16:20 | 28.58447 | 49.23366 | 25174 ft | 419 kts | 135° |
| 2026-05-04 16:21 | 28.51321 | 49.28670 | 26655 ft | 415 kts | 156° |
| 2026-05-04 16:22 | 28.46597 | 49.32691 | 26916 ft | 432 kts | 145° |
| 2026-05-04 16:22 | 28.39480 | 49.39816 | 26926 ft | 479 kts | 144° |
| 2026-05-04 16:23 | 28.31725 | 49.47536 | 26918 ft | 502 kts | 144° |
| 2026-05-04 16:24 | 28.21125 | 49.57904 | 26920 ft | 502 kts | 147° |
| 2026-05-04 16:25 | 28.15606 | 49.62678 | 26924 ft | 500 kts | 148° |
| 2026-05-04 16:26 | 28.04511 | 49.72188 | 26393 ft | 493 kts | 151° |
| 2026-05-04 16:26 | 27.96113 | 49.78740 | 25644 ft | 486 kts | 152° |
| 2026-05-04 16:27 | 27.90545 | 49.83050 | 25135 ft | 484 kts | 152° |
| 2026-05-04 16:28 | 27.82244 | 49.89475 | 24381 ft | 478 kts | 152° |
| 2026-05-04 16:28 | 27.73847 | 49.95944 | 23632 ft | 498 kts | 151° |
| 2026-05-04 16:29 | 27.62507 | 50.04714 | 22643 ft | 490 kts | 150° |
| 2026-05-04 16:30 | 27.54126 | 50.11178 | 21711 ft | 483 kts | 150° |
| 2026-05-04 16:31 | 27.48634 | 50.15411 | 20629 ft | 474 kts | 151° |
| 2026-05-04 16:31 | 27.40622 | 50.21692 | 19486 ft | 465 kts | 149° |
| 2026-05-04 16:32 | 27.32893 | 50.28006 | 18006 ft | 451 kts | 149° |
| 2026-05-04 16:33 | 27.27882 | 50.32064 | 17036 ft | 443 kts | 149° |
| 2026-05-04 16:33 | 27.22910 | 50.36073 | 16062 ft | 435 kts | 148° |
| 2026-05-04 16:34 | 27.18170 | 50.39908 | 15081 ft | 401 kts | 148° |
| 2026-05-04 16:34 | 27.15947 | 50.41705 | 14589 ft | 383 kts | 148° |
| 2026-05-04 16:35 | 27.09848 | 50.46624 | 13123 ft | 341 kts | 148° |
| 2026-05-04 16:35 | 27.04223 | 50.51094 | 12151 ft | 327 kts | 155° |
| 2026-05-04 16:36 | 27.02161 | 50.52208 | 12148 ft | 323 kts | 162° |
| 2026-05-04 16:36 | 26.98025 | 50.54069 | 11495 ft | 320 kts | 163° |
| 2026-05-04 16:37 | 26.93940 | 50.55967 | 10883 ft | 316 kts | 162° |
| 2026-05-04 16:37 | 26.91901 | 50.56942 | 10641 ft | 316 kts | 161° |
| 2026-05-04 16:37 | 26.87865 | 50.58898 | 10150 ft | 313 kts | 161° |
| 2026-05-04 16:38 | 26.83886 | 50.60833 | 9663 ft | 309 kts | 161° |
| 2026-05-04 16:39 | 26.78007 | 50.63698 | 8928 ft | 306 kts | 160° |
| 2026-05-04 16:39 | 26.74105 | 50.65605 | 8436 ft | 305 kts | 160° |
| 2026-05-04 16:40 | 26.70227 | 50.67526 | 8158 ft | 304 kts | 160° |
| 2026-05-04 16:40 | 26.66339 | 50.69437 | 8148 ft | 303 kts | 160° |
| 2026-05-04 16:41 | 26.62463 | 50.71327 | 8139 ft | 302 kts | 160° |
| 2026-05-04 16:41 | 26.56673 | 50.74148 | 8136 ft | 303 kts | 160° |
| 2026-05-04 16:42 | 26.50841 | 50.76981 | 7748 ft | 302 kts | 160° |
| 2026-05-04 16:43 | 26.47027 | 50.78834 | 7015 ft | 298 kts | 159° |
| 2026-05-04 16:43 | 26.43235 | 50.80673 | 6289 ft | 295 kts | 159° |
| 2026-05-04 16:43 | 26.41352 | 50.81589 | 5918 ft | 293 kts | 159° |
| 2026-05-04 16:44 | 26.33945 | 50.85177 | 4040 ft | 282 kts | 157° |
| 2026-05-04 16:45 | 26.30422 | 50.86886 | 3023 ft | 272 kts | 157° |
| 2026-05-04 16:46 | 26.25378 | 50.89182 | 2142 ft | 245 kts | 175° |
| 2026-05-04 16:46 | 26.22235 | 50.88246 | 2134 ft | 225 kts | 211° |
| 2026-05-04 16:47 | 26.19615 | 50.86700 | 2194 ft | 210 kts | 213° |
| 2026-05-04 16:47 | 26.17078 | 50.85072 | 2138 ft | 205 kts | 227° |
| 2026-05-04 16:48 | 26.16773 | 50.80986 | 2146 ft | 182 kts | 305° |
| 2026-05-04 16:48 | 26.17494 | 50.79840 | 2139 ft | 180 kts | 309° |
| 2026-05-04 16:49 | 26.18941 | 50.77539 | 2137 ft | 183 kts | 307° |
| 2026-05-04 16:49 | 26.20239 | 50.75291 | 2098 ft | 162 kts | 306° |
| 2026-05-04 16:50 | 26.21415 | 50.73224 | 1738 ft | 152 kts | 307° |
| 2026-05-04 16:50 | 26.22488 | 50.71349 | 1353 ft | 138 kts | 307° |
| 2026-05-04 16:51 | 26.23522 | 50.69553 | 1007 ft | 139 kts | 306° |
| 2026-05-04 16:51 | 26.24049 | 50.68636 | 826 ft | 139 kts | 306° |
| 2026-05-04 16:51 | 26.25088 | 50.66832 | 466 ft | 138 kts | 306° |
| 2026-05-04 16:52 | 26.26131 | 50.65000 | 120 ft | 142 kts | 306° |
| 2026-05-04 16:52 | 26.26650 | 50.64109 | 18 ft | 127 kts | 306° |
| 2026-05-04 16:53 | 26.27214 | 50.63146 | 12 ft | 35 kts | 299° |
| 2026-05-04 16:53 | 26.27251 | 50.62809 | 12 ft | 0 kts | 264° |
| 2026-05-04 16:54 | 26.27250 | 50.62802 | 12 ft | 4 kts | 265° |
| 2026-05-04 16:55 | 26.27254 | 50.62738 | 12 ft | 0 kts | 287° |
| 2026-05-04 16:56 | 26.27215 | 50.62633 | 12 ft | 12 kts | 227° |
| 2026-05-04 16:57 | 26.27228 | 50.62555 | 12 ft | 6 kts | 301° |